Time;durP1;ratioP1;P1;durP2;ratioP2;P2;SDS_P1;SDS_P2;PMS_P1;PMS_P2;Temp;Humidity;BMP_temperature;BMP_pressure;BME280_temperature;BME280_humidity;BME280_pressure;Samples;Min_cycle;Max_cycle;Signal;HPM_P1;HPM_P2
2024/02/08 00:00:06;;;;;;;5.40;3.58;;;;;;;3.15;100.00;99093.91;5019652;28;20818;-74
2024/02/08 00:02:38;;;;;;;5.63;3.65;;;;;;;3.17;100.00;99076.38;5029492;28;20046;-73
2024/02/08 00:05:07;;;;;;;5.22;3.85;;;;;;;3.21;100.00;99084.13;5023126;28;20065;-74
2024/02/08 00:07:36;;;;;;;7.55;4.10;;;;;;;3.20;100.00;99079.81;5025132;28;20057;-72
2024/02/08 00:10:08;;;;;;;6.30;4.15;;;;;;;3.13;100.00;99060.88;5013768;28;20042;-73
2024/02/08 00:12:38;;;;;;;6.38;4.28;;;;;;;3.21;100.00;99076.28;5032484;28;20437;-74
2024/02/08 00:15:06;;;;;;;6.47;3.95;;;;;;;3.18;100.00;99067.63;5032685;28;20049;-73
2024/02/08 00:17:34;;;;;;;5.75;4.22;;;;;;;3.12;100.00;99054.81;5037680;28;20064;-74
2024/02/08 00:20:08;;;;;;;5.65;4.22;;;;;;;3.16;100.00;99061.59;5014635;28;20060;-74
2024/02/08 00:22:36;;;;;;;9.38;4.40;;;;;;;3.17;100.00;99078.16;5037165;28;20281;-73
2024/02/08 00:25:05;;;;;;;6.85;4.53;;;;;;;3.12;100.00;99083.56;5034235;28;20244;-73
2024/02/08 00:27:33;;;;;;;6.27;4.70;;;;;;;3.12;100.00;99078.34;4998754;28;20037;-73
2024/02/08 00:30:02;;;;;;;5.63;4.55;;;;;;;3.10;100.00;99074.06;5028395;28;20510;-74
2024/02/08 00:32:32;;;;;;;6.05;4.10;;;;;;;3.14;100.00;99062.59;5032847;28;20045;-74
2024/02/08 00:35:03;;;;;;;7.25;4.47;;;;;;;3.13;100.00;99060.88;5036671;28;20049;-73
2024/02/08 00:37:40;;;;;;;7.32;4.80;;;;;;;3.16;100.00;99060.75;5034018;28;20072;-73
2024/02/08 00:40:11;;;;;;;6.60;4.40;;;;;;;3.17;100.00;99065.94;5030523;28;20041;-73
2024/02/08 00:42:45;;;;;;;6.35;4.55;;;;;;;3.20;100.00;99064.97;5036758;28;20053;-73
2024/02/08 00:45:18;;;;;;;7.20;4.93;;;;;;;3.14;100.00;99057.38;5041508;28;20065;-73
2024/02/08 00:47:50;;;;;;;7.50;4.80;;;;;;;3.18;100.00;99061.53;5015326;28;20060;-73
2024/02/08 00:50:19;;;;;;;5.95;4.63;;;;;;;3.09;100.00;99051.44;5016010;28;20049;-73
2024/02/08 00:52:49;;;;;;;8.48;5.03;;;;;;;3.16;100.00;99052.91;5023055;28;20057;-74
2024/02/08 00:55:17;;;;;;;6.90;4.90;;;;;;;3.16;100.00;99056.38;5027436;28;20038;-73
2024/02/08 00:57:47;;;;;;;9.05;5.38;;;;;;;3.15;100.00;99062.50;5043068;28;20037;-74
2024/02/08 01:00:17;;;;;;;8.30;5.25;;;;;;;3.11;100.00;99047.88;5007696;28;20059;-74
2024/02/08 01:02:45;;;;;;;8.60;5.28;;;;;;;3.10;100.00;99054.00;5025240;28;20053;-74
2024/02/08 01:05:16;;;;;;;8.35;5.10;;;;;;;3.16;100.00;99065.97;5015688;28;20049;-74
2024/02/08 01:07:44;;;;;;;10.27;5.40;;;;;;;3.15;100.00;99054.66;4986224;28;20046;-74
2024/02/08 01:10:14;;;;;;;9.18;5.50;;;;;;;3.16;100.00;99058.13;5022642;28;20041;-73
2024/02/08 01:12:42;;;;;;;7.82;4.97;;;;;;;3.16;100.00;99061.59;5028529;28;20052;-74
2024/02/08 01:15:14;;;;;;;8.57;5.60;;;;;;;3.13;100.00;99059.13;5033939;28;20042;-73
2024/02/08 01:17:42;;;;;;;9.57;5.53;;;;;;;3.14;100.00;99053.00;5029149;28;20042;-74
2024/02/08 01:20:19;;;;;;;10.65;6.18;;;;;;;3.20;100.00;99057.13;5016330;28;20490;-73
2024/02/08 01:22:48;;;;;;;10.45;6.50;;;;;;;3.22;100.00;99057.91;5016269;28;20049;-73
2024/02/08 01:25:19;;;;;;;;;;;;;;;3.25;100.00;99059.56;5001384;28;20042;-73
2024/02/08 01:27:50;;;;;;;8.95;5.78;;;;;;;3.23;100.00;99059.63;4986258;28;19945;-74
2024/02/08 01:30:19;;;;;;;9.93;6.30;;;;;;;3.24;100.00;99061.31;4972386;28;20065;-72
2024/02/08 01:32:49;;;;;;;11.93;6.38;;;;;;;3.28;100.00;99067.28;4997139;28;20045;-73
2024/02/08 01:35:21;;;;;;;9.40;6.78;;;;;;;3.21;100.00;99061.44;4970378;28;20050;-72
2024/02/08 01:37:53;;;;;;;10.07;6.88;;;;;;;3.21;100.00;99065.81;4984649;28;20256;-73
2024/02/08 01:40:24;;;;;;;11.05;7.10;;;;;;;3.25;100.00;99073.50;4978915;28;20759;-74
2024/02/08 01:42:58;;;;;;;11.35;7.03;;;;;;;3.27;100.00;99068.22;4984612;28;20042;-73
2024/02/08 01:45:33;;;;;;;9.65;6.45;;;;;;;3.32;100.00;99076.72;4999865;28;20062;-73
2024/02/08 01:48:10;;;;;;;10.07;6.75;;;;;;;3.40;100.00;99079.91;5003533;28;20110;-73
2024/02/08 01:50:42;;;;;;;11.10;6.65;;;;;;;3.32;100.00;99068.84;4996562;28;20050;-73
2024/02/08 01:53:15;;;;;;;10.45;6.43;;;;;;;3.30;100.00;99076.78;4990873;28;20426;-74
2024/02/08 01:55:49;;;;;;;9.95;6.45;;;;;;;3.28;100.00;99070.75;4985699;28;20061;-74
2024/02/08 01:58:24;;;;;;;11.52;6.45;;;;;;;3.17;100.00;99050.22;4980906;28;20074;-73
2024/02/08 02:00:58;;;;;;;8.10;5.72;;;;;;;3.30;100.00;99068.09;4993875;28;20073;-73
2024/02/08 02:03:26;;;;;;;8.70;5.30;;;;;;;3.32;100.00;99072.34;5005595;28;20173;-73
2024/02/08 02:05:54;;;;;;;8.32;5.55;;;;;;;3.23;100.00;99051.78;4987506;28;20410;-75
2024/02/08 02:08:26;;;;;;;8.75;5.32;;;;;;;3.03;100.00;99020.28;5001754;28;20380;-73
2024/02/08 02:11:07;;;;;;;8.05;5.40;;;;;;;3.30;100.00;99065.47;4997731;28;20065;-74
2024/02/08 02:13:38;;;;;;;8.75;5.20;;;;;;;3.33;100.00;99063.56;5007356;28;20049;-73
2024/02/08 02:16:06;;;;;;;;;;;;;;;3.40;100.00;99056.34;4979432;28;20050;-74
2024/02/08 02:18:39;;;;;;;7.63;4.70;;;;;;;3.40;100.00;99057.19;4998910;28;19953;-73
2024/02/08 02:21:12;;;;;;;6.68;4.30;;;;;;;3.32;100.00;99043.56;4999403;28;20038;-74
2024/02/08 02:23:42;;;;;;;5.57;3.80;;;;;;;3.36;100.00;99052.13;4982098;28;20117;-73
2024/02/08 02:26:12;;;;;;;5.13;3.50;;;;;;;3.22;100.00;99026.53;4990159;28;20132;-74
2024/02/08 02:28:42;;;;;;;5.70;3.85;;;;;;;3.27;100.00;99034.19;4996702;28;20049;-74
2024/02/08 02:31:13;;;;;;;5.47;3.58;;;;;;;3.32;100.00;99045.31;4993632;28;20058;-74
2024/02/08 02:33:42;;;;;;;5.30;3.33;;;;;;;3.32;100.00;99040.06;5015369;28;20050;-73
2024/02/08 02:36:13;;;;;;;6.25;3.50;;;;;;;3.34;100.00;99048.72;4977376;28;20046;-74
2024/02/08 02:38:45;;;;;;;4.38;2.90;;;;;;;3.30;100.00;99050.63;4994696;28;20098;-73
2024/02/08 02:41:12;;;;;;;3.47;2.83;;;;;;;3.35;100.00;99043.44;4979278;28;20046;-74
2024/02/08 02:43:44;;;;;;;5.25;3.00;;;;;;;3.36;100.00;99044.28;4981695;28;20070;-74
2024/02/08 02:46:13;;;;;;;4.43;3.00;;;;;;;3.34;100.00;99039.13;5005730;28;20041;-74
2024/02/08 02:48:41;;;;;;;4.38;3.25;;;;;;;3.34;100.00;99043.50;4997730;28;20502;-74
2024/02/08 02:51:12;;;;;;;6.07;3.15;;;;;;;3.28;100.00;99030.66;4994433;28;20038;-74
2024/02/08 02:53:41;;;;;;;4.32;3.17;;;;;;;3.34;100.00;99054.81;4974233;28;20045;-73
2024/02/08 02:56:11;;;;;;;3.47;2.70;;;;;;;3.35;100.00;99046.06;5000492;28;20600;-75
2024/02/08 02:58:41;;;;;;;5.22;2.63;;;;;;;3.27;100.00;99034.19;4968817;28;20057;-73
2024/02/08 03:01:12;;;;;;;2.90;2.40;;;;;;;3.26;100.00;99029.88;4979900;28;20045;-73
2024/02/08 03:03:41;;;;;;;3.78;2.90;;;;;;;3.15;100.00;99014.56;5000654;28;20037;-74
2024/02/08 03:06:14;;;;;;;3.33;2.47;;;;;;;3.34;100.00;99036.50;5008238;28;20240;-73
2024/02/08 03:08:45;;;;;;;3.53;2.38;;;;;;;3.22;100.00;99002.13;4995949;28;20223;-72
2024/02/08 03:11:20;;;;;;;2.85;2.05;;;;;;;3.27;100.00;99018.50;4978232;28;20451;-74
2024/02/08 03:13:56;;;;;;;4.80;2.60;;;;;;;3.26;100.00;99001.94;4989399;28;20046;-74
2024/02/08 03:16:28;;;;;;;2.65;2.25;;;;;;;3.38;100.00;99017.16;4987456;28;20085;-73
2024/02/08 03:18:59;;;;;;;3.10;2.40;;;;;;;3.41;100.00;99021.41;4984003;28;20046;-73
2024/02/08 03:21:28;;;;;;;3.95;2.88;;;;;;;3.44;100.00;99021.31;4996404;28;20046;-74
2024/02/08 03:24:07;;;;;;;4.00;2.70;;;;;;;3.42;100.00;99013.50;4995024;28;20071;-73
2024/02/08 03:26:40;;;;;;;3.75;2.58;;;;;;;3.40;100.00;99010.09;5000809;28;20076;-74
2024/02/08 03:29:12;;;;;;;3.90;2.92;;;;;;;3.35;100.00;98995.47;5007203;28;20167;-74
2024/02/08 03:31:45;;;;;;;3.80;2.90;;;;;;;3.41;100.00;99003.97;5023407;28;20045;-74
2024/02/08 03:34:23;;;;;;;3.40;2.72;;;;;;;3.44;100.00;99003.84;5029334;28;20084;-74
2024/02/08 03:36:52;;;;;;;3.72;3.03;;;;;;;3.55;100.00;99006.00;5005938;28;20080;-74
2024/02/08 03:39:26;;;;;;;4.22;2.63;;;;;;;3.57;100.00;99016.44;5008517;28;20105;-75
2024/02/08 03:41:59;;;;;;;3.05;2.55;;;;;;;3.58;100.00;99012.91;5013051;28;20057;-74
2024/02/08 03:44:29;;;;;;;3.58;2.10;;;;;;;3.60;100.00;99008.44;5005403;28;20050;-74
2024/02/08 03:47:03;;;;;;;2.22;1.92;;;;;;;3.58;100.00;99018.97;5005445;28;20045;-74
2024/02/08 03:49:33;;;;;;;2.08;1.60;;;;;;;3.53;100.00;99011.31;4986491;28;20053;-74
2024/02/08 03:52:01;;;;;;;1.52;1.40;;;;;;;3.41;100.00;99005.72;5011607;28;20049;-75
2024/02/08 03:54:33;;;;;;;1.88;1.40;;;;;;;3.45;100.00;99017.78;4980400;28;20038;-74
2024/02/08 03:57:05;;;;;;;2.15;1.73;;;;;;;3.44;100.00;99018.69;5003529;28;20045;-75
2024/02/08 03:59:40;;;;;;;2.97;1.90;;;;;;;3.44;100.00;99018.69;5013360;28;20038;-76
2024/02/08 04:02:10;;;;;;;3.53;1.92;;;;;;;3.48;100.00;99009.78;5014951;28;20198;-74
2024/02/08 04:04:59;;;;;;;2.70;1.90;;;;;;;3.49;100.00;99003.63;4986732;28;20050;-76
2024/02/08 04:07:45;;;;;;;1.88;1.48;;;;;;;3.57;100.00;99005.97;5036518;28;20041;-76
2024/02/08 04:10:28;;;;;;;3.08;2.25;;;;;;;3.52;100.00;99006.13;5010519;28;20041;-75
2024/02/08 04:54:42;;;;;;;8.93;5.60;;;;;;;3.48;100.00;99004.53;4986155;28;20037;-77
2024/02/08 04:57:11;;;;;;;9.05;5.57;;;;;;;3.53;100.00;99002.59;5030468;28;20564;-74
2024/02/08 04:59:42;;;;;;;10.65;5.50;;;;;;;3.53;100.00;98999.97;5006708;28;20134;-74
2024/02/08 05:02:14;;;;;;;9.82;5.45;;;;;;;3.49;100.00;99001.00;4996410;28;20034;-73
2024/02/08 05:04:42;;;;;;;10.23;5.55;;;;;;;3.43;100.00;98998.66;5004361;28;20041;-75
2024/02/08 05:07:11;;;;;;;10.65;5.95;;;;;;;3.41;100.00;98995.25;5031758;28;20061;-73
2024/02/08 05:09:40;;;;;;;11.73;6.50;;;;;;;3.37;100.00;98986.66;5008193;28;20417;-73
2024/02/08 05:12:10;;;;;;;13.63;7.10;;;;;;;3.34;100.00;98985.94;4969766;28;20042;-74
2024/02/08 05:14:42;;;;;;;13.35;6.90;;;;;;;3.28;100.00;98973.97;5021930;28;20057;-76
2024/02/08 05:17:10;;;;;;;12.25;6.78;;;;;;;3.32;100.00;98980.75;5020725;28;20045;-73
2024/02/08 05:19:43;;;;;;;13.73;7.18;;;;;;;3.36;100.00;98981.50;4991405;28;20037;-75
2024/02/08 05:22:13;;;;;;;19.42;8.10;;;;;;;3.34;100.00;98967.63;4999276;28;20041;-75
2024/02/08 05:24:41;;;;;;;12.82;6.47;;;;;;;3.44;100.00;98990.75;5017409;28;20116;-76
2024/02/08 05:27:11;;;;;;;13.00;6.85;;;;;;;3.35;100.00;98974.56;5013199;28;20062;-74
2024/02/08 05:29:42;;;;;;;12.48;6.45;;;;;;;3.38;100.00;98990.13;5011544;28;20053;-75
2024/02/08 05:32:11;;;;;;;13.70;6.55;;;;;;;3.38;100.00;98980.53;5018227;28;20046;-73
2024/02/08 05:34:44;;;;;;;13.30;6.43;;;;;;;3.38;100.00;98988.38;5028635;28;20041;-75
2024/02/08 05:37:14;;;;;;;11.20;5.93;;;;;;;3.27;100.00;98955.72;5013295;28;20149;-74
2024/02/08 05:39:46;;;;;;;14.00;7.35;;;;;;;3.34;100.00;98980.69;5005164;28;20550;-74
2024/02/08 05:42:15;;;;;;;14.77;7.43;;;;;;;3.29;100.00;98975.69;5020800;28;20056;-74
2024/02/08 05:44:47;;;;;;;14.05;6.95;;;;;;;3.27;100.00;98980.13;5009498;28;20153;-75
2024/02/08 05:47:25;;;;;;;16.50;7.40;;;;;;;3.23;100.00;98970.69;5024848;28;20057;-74
2024/02/08 05:49:54;;;;;;;13.68;7.18;;;;;;;3.28;100.00;98983.59;5000878;28;20116;-74
2024/02/08 05:52:26;;;;;;;18.60;8.35;;;;;;;3.31;100.00;98972.97;5018212;28;20073;-75
2024/02/08 05:54:58;;;;;;;19.02;7.90;;;;;;;3.31;100.00;98965.97;5009553;28;20128;-75
2024/02/08 05:57:30;;;;;;;18.67;7.82;;;;;;;3.27;100.00;98969.66;5007150;28;20065;-74
2024/02/08 06:00:00;;;;;;;15.60;6.70;;;;;;;3.24;100.00;98961.91;4995680;28;20292;-74
2024/02/08 06:02:40;;;;;;;15.82;6.95;;;;;;;3.26;100.00;98975.78;5022950;28;20196;-74
2024/02/08 06:05:17;;;;;;;15.23;6.80;;;;;;;3.22;100.00;98973.34;5023825;28;20558;-75
2024/02/08 06:07:56;;;;;;;14.00;6.93;;;;;;;3.05;100.00;98961.78;5007404;28;20139;-74
2024/02/08 06:10:42;;;;;;;15.18;7.38;;;;;;;3.18;100.00;98994.38;4994421;28;20133;-74
2024/02/08 06:13:14;;;;;;;17.52;7.50;;;;;;;3.23;100.00;98980.28;5017667;28;20464;-74
2024/02/08 06:15:47;;;;;;;20.60;8.15;;;;;;;3.29;100.00;98986.13;4989128;28;20407;-76
2024/02/08 06:18:24;;;;;;;;;;;;;;;3.27;100.00;98989.72;5014944;28;20038;-74
2024/02/08 06:20:59;;;;;;;21.05;8.20;;;;;;;3.27;100.00;98987.09;5021114;28;19925;-73
2024/02/08 06:23:34;;;;;;;21.48;8.75;;;;;;;3.21;100.00;98995.19;5000557;28;20067;-73
2024/02/08 06:28:47;;;;;;;20.20;9.23;;;;;;;3.24;100.00;98992.44;5024543;28;20109;-76
2024/02/08 06:31:20;;;;;;;21.75;8.98;;;;;;;3.27;100.00;98992.34;5003964;28;20195;-74
2024/02/08 06:36:42;;;;;;;25.13;9.77;;;;;;;3.21;100.00;98984.72;5028905;28;20071;-74
2024/02/08 06:42:07;;;;;;;25.73;10.90;;;;;;;3.15;100.00;98978.81;5020742;28;20038;-75
2024/02/08 06:44:52;;;;;;;31.85;11.27;;;;;;;3.22;100.00;98983.81;4995153;28;20578;-75
2024/02/08 06:47:56;;;;;;;30.23;10.90;;;;;;;3.28;100.00;98978.34;5017156;28;20045;-75
2024/02/08 07:38:07;;;;;;;31.63;11.68;;;;;;;3.53;100.00;98969.44;5016205;28;20185;-73
2024/02/08 07:40:36;;;;;;;32.13;10.95;;;;;;;3.54;100.00;98972.91;5017145;28;20116;-72
2024/02/08 07:43:34;;;;;;;33.72;12.18;;;;;;;3.48;100.00;98963.53;4994517;28;20144;-74
2024/02/08 07:46:05;;;;;;;33.15;11.95;;;;;;;3.43;100.00;98962.03;5007163;28;20498;-73
2024/02/08 07:48:39;;;;;;;30.48;11.15;;;;;;;3.54;100.00;98983.38;5006803;28;20082;-78
2024/02/08 07:51:08;;;;;;;29.67;11.13;;;;;;;3.48;100.00;98975.75;5003100;28;20042;-74
2024/02/08 07:53:45;;;;;;;30.63;11.15;;;;;;;3.42;100.00;98976.03;4975653;28;20061;-74
2024/02/08 07:56:37;;;;;;;32.72;11.18;;;;;;;3.55;100.00;98994.69;5000728;28;20084;-72
2024/02/08 07:59:15;;;;;;;34.25;11.32;;;;;;;3.57;100.00;98996.34;5002383;28;20152;-75
2024/02/08 08:01:53;;;;;;;37.05;11.63;;;;;;;3.58;100.00;99005.03;4984516;28;20120;-74
2024/02/08 08:07:09;;;;;;;37.63;12.98;;;;;;;3.53;100.00;98999.97;5004270;28;20507;-71
2024/02/08 08:09:39;;;;;;;23.80;9.15;;;;;;;3.55;100.00;98990.31;5002398;28;20061;-75
2024/02/08 08:12:08;;;;;;;31.40;11.35;;;;;;;3.59;100.00;98994.50;4974672;28;20153;-73
2024/02/08 08:15:13;;;;;;;35.42;11.50;;;;;;;3.31;100.00;98954.66;4986977;28;20049;-72
2024/02/08 08:17:43;;;;;;;30.48;11.82;;;;;;;3.56;100.00;98973.69;5010808;28;20041;-74
2024/02/08 08:20:56;;;;;;;23.73;8.57;;;;;;;3.56;100.00;98963.22;5001905;28;20052;-72
2024/02/08 08:23:25;;;;;;;32.63;10.95;;;;;;;3.70;100.00;98968.72;4976342;28;20050;-75
2024/02/08 08:26:23;;;;;;;33.53;11.38;;;;;;;3.80;100.00;98974.44;5001738;28;20563;-75
2024/02/08 08:29:02;;;;;;;30.77;11.20;;;;;;;3.83;100.00;98967.28;5000302;28;20053;-75
2024/02/08 08:31:36;;;;;;;27.13;10.60;;;;;;;3.82;100.00;98973.44;5000864;28;20065;-76
2024/02/08 08:37:02;;;;;;;30.60;11.02;;;;;;;3.73;100.00;98968.59;5004034;28;20057;-76
2024/02/08 08:42:36;;;;;;;28.48;10.30;;;;;;;3.88;100.00;98970.59;4988810;28;20112;-74
2024/02/08 08:45:09;;;;;;;29.55;9.80;;;;;;;3.88;100.00;98964.50;4975762;28;20042;-76
2024/02/08 08:47:40;;;;;;;26.13;9.73;;;;;;;3.90;100.00;98957.44;5003975;28;20119;-75
2024/02/08 08:50:18;;;;;;;26.30;9.85;;;;;;;3.87;100.00;98942.69;5016968;28;20049;-74
2024/02/08 08:52:50;;;;;;;28.55;10.18;;;;;;;4.01;100.00;98963.03;4983433;28;20034;-74
2024/02/08 08:55:20;;;;;;;24.70;9.65;;;;;;;4.02;100.00;98959.50;5006268;28;20085;-73
2024/02/08 08:57:53;;;;;;;29.38;10.10;;;;;;;4.06;100.00;98952.38;5018422;28;20076;-76
2024/02/08 09:00:31;;;;;;;31.52;10.80;;;;;;;4.12;100.00;98954.72;4986756;28;20533;-76
2024/02/08 09:03:04;;;;;;;31.58;11.23;;;;;;;4.14;100.00;98958.13;4997419;28;20137;-72
2024/02/08 09:05:32;;;;;;;28.88;10.60;;;;;;;4.20;100.00;98961.34;5021503;28;20045;-75
2024/02/08 09:08:08;;;;;;;31.30;11.05;;;;;;;4.13;100.00;98944.16;5012725;28;20140;-73
2024/02/08 09:10:40;;;;;;;29.27;10.77;;;;;;;4.17;100.00;98955.38;4996366;28;20057;-77
2024/02/08 09:13:15;;;;;;;29.75;11.02;;;;;;;4.17;100.00;98950.97;4995921;28;20042;-73
2024/02/08 09:15:55;;;;;;;31.10;11.15;;;;;;;4.19;100.00;98943.91;5007743;28;20727;-76
2024/02/08 09:18:55;;;;;;;32.22;11.90;;;;;;;4.20;100.00;98947.38;4992366;28;20065;-71
2024/02/08 09:21:19;;;;;;;31.67;12.18;;;;;;;4.27;100.00;98942.69;5022833;28;20053;-75
2024/02/08 09:23:51;;;;;;;28.30;10.80;;;;;;;4.32;100.00;98935.50;4994052;28;20132;-74
2024/02/08 09:26:24;;;;;;;28.38;11.70;;;;;;;4.36;100.00;98926.59;5008991;28;20060;-75
2024/02/08 09:29:00;;;;;;;30.08;11.57;;;;;;;4.39;100.00;98926.47;5030611;28;20113;-77
2024/02/08 09:31:38;;;;;;;30.63;10.85;;;;;;;4.05;100.00;98864.25;5035960;28;20061;-73
2024/02/08 09:34:15;;;;;;;29.70;10.85;;;;;;;4.37;100.00;98920.44;5011791;28;20037;-74
2024/02/08 09:36:46;;;;;;;30.80;11.40;;;;;;;4.27;100.00;98903.41;5012312;28;20056;-75
2024/02/08 09:39:48;;;;;;;25.90;11.13;;;;;;;4.34;100.00;98921.41;5024032;28;20038;-77
2024/02/08 09:42:09;;;;;;;29.23;11.18;;;;;;;4.42;100.00;98924.53;5020068;28;20326;-75
2024/02/08 09:44:39;;;;;;;27.73;11.50;;;;;;;4.46;100.00;98914.75;5007493;28;20145;-74
2024/02/08 09:47:16;;;;;;;25.13;10.85;;;;;;;4.52;100.00;98919.72;5013853;28;20115;-75
2024/02/08 09:49:47;;;;;;;26.88;10.45;;;;;;;4.41;100.00;98896.59;5005955;28;20050;-73
2024/02/08 09:52:24;;;;;;;;;;;;;;;4.49;100.00;98919.88;4990001;28;20041;-75
2024/02/08 09:54:54;;;;;;;24.77;10.68;;;;;;;4.37;100.00;98916.03;5005449;28;19921;-74
2024/02/08 09:57:31;;;;;;;22.25;9.60;;;;;;;4.36;100.00;98914.34;5003116;28;20088;-77
2024/02/08 10:00:06;;;;;;;21.73;9.57;;;;;;;4.28;100.00;98908.56;5019205;28;20037;-74
2024/02/08 10:02:54;;;;;;;24.65;10.80;;;;;;;4.28;100.00;98905.94;5003217;28;20050;-74
2024/02/08 10:08:17;;;;;;;26.92;11.95;;;;;;;4.38;100.00;98907.25;4991171;28;20064;-73
2024/02/08 10:10:56;;;;;;;22.65;10.52;;;;;;;4.42;100.00;98905.31;5004514;28;20044;-74
2024/02/08 10:13:51;;;;;;;23.10;10.30;;;;;;;4.40;100.00;98896.72;4983991;28;20053;-78
2024/02/08 10:16:29;;;;;;;22.25;10.13;;;;;;;4.36;100.00;98893.38;5006741;28;20038;-72
2024/02/08 10:19:02;;;;;;;24.00;10.65;;;;;;;4.43;100.00;98893.91;5008288;28;20100;-76
2024/02/08 10:21:35;;;;;;;23.15;10.60;;;;;;;4.19;100.00;98853.97;5001335;28;20513;-78
2024/02/08 10:24:25;;;;;;;23.40;10.13;;;;;;;4.38;100.00;98891.53;5009905;28;20100;-72
2024/02/08 10:26:58;;;;;;;26.58;11.30;;;;;;;4.41;100.00;98887.91;5009264;28;20042;-79
2024/02/08 10:29:31;;;;;;;23.60;10.27;;;;;;;4.51;100.00;98889.19;5005934;28;20053;-78
2024/02/08 10:32:03;;;;;;;24.90;10.30;;;;;;;4.53;100.00;98882.13;5008462;28;20052;-70
2024/02/08 10:34:39;;;;;;;23.40;10.07;;;;;;;4.57;100.00;98887.13;5002976;28;20042;-71
2024/02/08 10:37:46;;;;;;;23.15;9.80;;;;;;;4.45;100.00;98860.63;5019764;28;20183;-73
2024/02/08 10:40:28;;;;;;;23.60;10.75;;;;;;;4.64;100.00;98863.25;5027699;28;20053;-75
2024/02/08 10:42:58;;;;;;;22.05;9.57;;;;;;;4.61;100.00;98850.28;4977663;28;20487;-72
2024/02/08 10:45:32;;;;;;;22.88;9.40;;;;;;;4.67;100.00;98863.09;5006714;28;20069;-74
2024/02/08 10:48:03;;;;;;;21.42;8.32;;;;;;;4.69;100.00;98848.16;5003029;28;20041;-73
2024/02/08 10:50:34;;;;;;;22.30;9.35;;;;;;;4.72;100.00;98840.97;5005631;28;20520;-77
2024/02/08 10:53:16;;;;;;;19.77;8.57;;;;;;;4.70;100.00;98834.97;4989337;28;21569;-73
2024/02/08 10:55:52;;;;;;;;;;;;;;;4.71;100.00;98825.34;5011069;28;20053;-73
2024/02/08 10:58:27;;;;;;;;;;;;;;;4.74;100.00;98820.78;5004212;28;20023;-72
2024/02/08 11:01:13;;;;;;;;;;;;;;;4.78;100.00;98806.59;5025052;28;20298;-72
2024/02/08 11:03:53;;;;;;;;;;;;;;;4.79;100.00;98810.91;5017614;28;19943;-73
2024/02/08 11:06:29;;;;;;;;;;;;;;;4.79;100.00;98804.81;4988167;28;19926;-74
2024/02/08 11:09:14;;;;;;;;;;;;;;;4.82;100.00;98799.44;5020931;28;19921;-74
2024/02/08 11:11:49;;;;;;;;;;;;;;;4.89;100.00;98792.94;5022864;28;19971;-74
2024/02/08 11:14:19;;;;;;;;;;;;;;;4.87;100.00;98785.19;4970312;28;19985;-78
2024/02/08 11:16:51;;;;;;;;;;;;;;;4.89;100.00;98782.47;5021650;28;19936;-74
2024/02/08 11:19:22;;;;;;;;;;;;;;;4.93;100.00;98778.78;5011061;28;19929;-74
2024/02/08 11:21:51;;;;;;;;;;;;;;;4.90;100.00;98763.19;5007550;28;19983;-74
2024/02/08 11:24:28;;;;;;;;;;;;;;;4.92;100.00;98762.19;5002579;28;19985;-74
2024/02/08 11:27:01;;;;;;;;;;;;;;;4.93;100.00;98752.53;4991058;28;20298;-71
2024/02/08 11:29:41;;;;;;;;;;;;;;;4.89;100.00;98746.59;5008368;28;20294;-72
2024/02/08 11:32:16;;;;;;;;;;;;;;;4.91;100.00;98736.03;5001550;28;20345;-73
2024/02/08 11:34:45;;;;;;;;;;;;;;;4.98;100.00;98734.81;5014184;28;19931;-73
2024/02/08 11:37:17;;;;;;;;;;;;;;;4.99;100.00;98728.63;5026470;28;20694;-72
2024/02/08 11:39:58;;;;;;;;;;;;;;;5.01;100.00;98724.16;5003979;28;19995;-70
2024/02/08 11:42:35;;;;;;;;;;;;;;;5.04;100.00;98716.09;5004614;28;20453;-75
2024/02/08 11:45:08;;;;;;;;;;;;;;;5.05;100.00;98714.34;5001287;28;19928;-72
2024/02/08 11:47:41;;;;;;;;;;;;;;;5.00;100.00;98711.97;4992644;28;20039;-75
2024/02/08 11:50:20;;;;;;;;;;;;;;;5.03;100.00;98703.09;5010523;28;19967;-74
2024/02/08 11:52:57;;;;;;;;;;;;;;;5.02;100.00;98699.63;5005347;28;20679;-76
2024/02/08 11:55:28;;;;;;;;;;;;;;;5.05;100.00;98695.97;5007927;28;20060;-71
2024/02/08 11:57:57;;;;;;;;;;;;;;;5.05;100.00;98694.19;5009261;28;19983;-71
2024/02/08 12:00:26;;;;;;;;;;;;;;;5.11;100.00;98688.66;4984803;28;19925;-72
2024/02/08 12:03:01;;;;;;;;;;;;;;;5.13;100.00;98689.41;4989594;28;19925;-73
2024/02/08 12:05:33;;;;;;;;;;;;;;;5.06;100.00;98682.78;5004469;28;20016;-73
2024/02/08 12:08:09;;;;;;;;;;;;;;;5.02;100.00;98673.41;4994729;28;21130;-73
2024/02/08 12:10:41;;;;;;;;;;;;;;;5.00;100.00;98682.25;5008447;28;19960;-70
2024/02/08 12:13:12;;;;;;;;;;;;;;;5.01;100.00;98676.94;5007017;28;20019;-72
2024/02/08 12:15:55;;;;;;;;;;;;;;;4.99;100.00;98672.69;5015608;28;19925;-73
2024/02/08 12:18:31;;;;;;;;;;;;;;;4.94;100.00;98675.53;5019237;28;19929;-73
2024/02/08 12:21:01;;;;;;;;;;;;;;;4.93;100.00;98671.22;5004386;28;20091;-71
2024/02/08 12:23:31;;;;;;;;;;;;;;;4.88;100.00;98670.59;5010640;28;20261;-71
2024/02/08 12:26:06;;;;;;;;;;;;;;;4.87;100.00;98664.53;5029518;28;20052;-73
2024/02/08 12:28:37;;;;;;;;;;;;;;;4.89;100.00;98649.53;5007012;28;19990;-72
2024/02/08 12:31:16;;;;;;;;;;;;;;;4.93;100.00;98655.50;5025254;28;19921;-72
2024/02/08 12:33:50;;;;;;;;;;;;;;;4.89;100.00;98653.94;5011860;28;19925;-74
2024/02/08 12:36:23;;;;;;;;;;;;;;;4.88;100.00;98660.97;4992229;28;19992;-74
2024/02/08 12:38:53;;;;;;;;;;;;;;;4.87;100.00;98663.69;5016139;28;19921;-72
2024/02/08 12:41:22;;;;;;;;;;;;;;;4.89;100.00;98653.94;5007774;28;19921;-70
2024/02/08 12:43:51;;;;;;;;;;;;;;;4.92;100.00;98652.03;4999645;28;19925;-72
2024/02/08 12:46:20;;;;;;;;;;;;;;;4.97;100.00;98643.06;5016883;28;19925;-72
2024/02/08 12:48:48;;;;;;;;;;;;;;;5.05;100.00;98641.72;5015844;28;19932;-74
2024/02/08 12:51:20;;;;;;;;;;;;;;;5.10;100.00;98623.97;5008629;28;19929;-74
2024/02/08 12:53:49;;;;;;;;;;;;;;;5.13;100.00;98613.31;5016201;28;19928;-73
2024/02/08 12:56:20;;;;;;;;;;;;;;;5.15;100.00;98597.50;5006532;28;19927;-75
2024/02/08 12:59:03;;;;;;;;;;;;;;;5.17;100.00;98603.53;5024006;28;19928;-74
2024/02/08 13:01:38;;;;;;;;;;;;;;;5.17;100.00;98593.03;5006935;28;19925;-76
2024/02/08 13:04:07;;;;;;;;;;;;;;;5.20;100.00;98598.09;5014835;28;20401;-73
2024/02/08 13:06:36;;;;;;;;;;;;;;;5.18;100.00;98598.19;5025175;28;19956;-74
2024/02/08 13:09:25;;;;;;;;;;;;;;;5.24;100.00;98591.75;4995665;28;20003;-72
2024/02/08 13:12:14;;;;;;;;;;;;;;;5.31;100.00;98600.16;5004003;28;19964;-74
2024/02/08 13:15:02;;;;;;;;;;;;;;;5.26;100.00;98595.16;4987792;28;19947;-76
2024/02/08 13:17:34;;;;;;;;;;;;;;;5.24;100.00;98597.84;5021107;28;19951;-75
2024/02/08 13:20:17;;;;;;;;;;;;;;;5.21;100.00;98594.53;5023999;28;19933;-77
2024/02/08 13:22:49;;;;;;;;;;;;;;;5.21;100.00;98587.50;5004307;28;21285;-76
2024/02/08 13:25:17;;;;;;;;;;;;;;;5.26;100.00;98588.13;5004176;28;19928;-76
2024/02/08 13:27:45;;;;;;;;;;;;;;;5.31;100.00;98587.88;5011246;28;19929;-70
2024/02/08 13:30:15;;;;;;;;;;;;;;;5.35;100.00;98575.44;4983525;28;20012;-76
2024/02/08 13:32:51;;;;;;;;;;;;;;;5.40;100.00;98576.88;5004733;28;19925;-79
2024/02/08 13:35:26;;;;;;;;;;;;;;;5.41;100.00;98568.06;5006090;28;19924;-74
2024/02/08 13:37:54;;;;;;;;;;;;;;;5.43;100.00;98573.22;5008561;28;19925;-76
2024/02/08 13:40:24;;;;;;;;;;;;;;;5.41;100.00;98564.59;4993823;28;19920;-76
2024/02/08 13:42:55;;;;;;;;;;;;;;;5.41;100.00;98562.81;4998778;28;19925;-74
2024/02/08 13:45:30;;;;;;;;;;;;;;;5.43;100.00;98563.56;5019458;28;20084;-74
2024/02/08 13:48:03;;;;;;;;;;;;;;;5.52;100.00;98554.34;5002078;28;19923;-72
2024/02/08 13:50:33;;;;;;;;;;;;;;;5.57;100.00;98544.44;5016244;28;20003;-73
2024/02/08 13:53:06;;;;;;;;;;;;;;;5.61;100.00;98545.97;5009633;28;19987;-79
2024/02/08 13:55:36;;;;;;;;;;;;;;;5.60;100.00;98545.13;5002649;28;19925;-77
2024/02/08 13:58:20;;;;;;;;;;;;;;;5.62;100.00;98542.41;5015908;28;20531;-74
2024/02/08 14:00:54;;;;;;;;;;;;;;;5.63;100.00;98544.94;5032655;28;19931;-76
2024/02/08 14:03:24;;;;;;;;;;;;;;;5.66;100.00;98535.22;4992953;28;20309;-78
2024/02/08 14:05:55;;;;;;;;;;;;;;;5.71;100.00;98536.63;5003841;28;19921;-76